Monday, June 25, 2018, 12:21 AM EDT
Back to Local

KACK, Nantucket Memorial Airport

Location: Nantucket, MA, United States Lat: 41.25
Local Time: 12:21 AM EDT ( 4:21 GMT) Lon: -70.067
Time Zone: US/Eastern Elev: 49 ft

Show me the last for .
Show Decoded

2018-06-25 00:12 METAR KACK 250412Z AUTO 16011KT 3/4SM R24/4000V5500FT BR VV002 17/17 A2977 RMK
                 AO2 LTG DSNT E AND SW T01670167 =
2018-06-25 00:03 METAR KACK 250403Z AUTO 16007KT 3/4SM R24/3500V5000FT BR VV006 17/17 A2978 RMK
                 AO2 LTG DSNT NE T01720172 =
2018-06-24 23:53 METAR KACK 250353Z AUTO 16009KT 3/4SM R24/2800VP6000FT VCTS BR VV008 17/17 A2979
                 RMK AO2 LTG DSNT NE RAB29E53 TSB30E48 PRESFR SLP086 P0023 T01720172 =
2018-06-24 23:49 METAR KACK 250349Z AUTO 17008KT 1SM R24/3000VP6000FT VCTS -RA BR BKN009 OVC065
                 17/17 A2979 RMK AO2 LTG DSNT NE RAB29 TSB30E48 PRESFR P0023 =
2018-06-24 23:39 METAR KACK 250339Z AUTO 18009KT 1SM R24/4500VP6000FT +TSRA BR VV014 18/17 A2981
                 RMK AO2 LTG DSNT N AND NE RAB29 TSB30 P0022 T01780172 =
2018-06-24 23:33 METAR KACK 250333Z AUTO 24008KT 1/2SM R24/2000VP6000FT +TSRA FG VV006 17/17
                 A2982 RMK AO2 LTG DSNT N AND NW RAB29 TSB30 P0010 T01720172 =
2018-06-24 23:30 METAR KACK 250330Z AUTO 25007KT 1/4SM R24/1600V4500FT -TSRA FG VV003 17/17 A2984
                 RMK AO2 LTG DSNT N AND NW RAB29 TSB30 P0005 T01720172 =
2018-06-24 23:12 METAR KACK 250312Z AUTO 22005KT 1/4SM R24/1400V1600FT VCTS FG VV002 17/17 A2982
                 RMK AO2 LTG DSNT W AND NW T01720172 =
2018-06-24 23:04 METAR KACK 250304Z AUTO 00000KT 1/4SM R24/1600V2400FT FG VV002 17/17 A2982 RMK
                 AO2 LTG DSNT W AND NW T01720167 =
2018-06-24 22:53 METAR KACK 250253Z AUTO 19005KT 1/4SM R24/1600V2200FT FG VV002 17/17 A2982 RMK
                 AO2 LTG DSNT W-N SLP098 T01670167 58004 =
2018-06-24 22:41 METAR KACK 250241Z AUTO 18007KT 1/2SM R24/2800V3500FT FG VV002 17/17 A2982 RMK
                 AO2 LTG DSNT W AND NW T01670167 =
2018-06-24 22:29 METAR KACK 250229Z AUTO 18005KT 1/4SM R24/2000V2400FT FG VV002 17/17 A2981 RMK
                 AO2 LTG DSNT W AND NW T01670167 =
2018-06-24 21:53 METAR KACK 250153Z 19007KT 1/4SM R24/1200V1400FT FG VV002 17/17 A2983 RMK AO2
                 SLP101 T01670167 =
2018-06-24 20:53 METAR KACK 250053Z 18006KT 1/4SM R24/1200V1600FT FG VV002 17/17 A2983 RMK AO2
                 SLP103 T01670167 =
2018-06-24 20:48 METAR KACK 250048Z 19008KT 1/4SM R24/1800FT FG VV002 17/17 A2983 RMK AO2 =
2018-06-24 20:34 METAR KACK 250034Z 20006KT 1/2SM R24/1800FT FG VV002 17/17 A2983 RMK AO2
                 T01720167 =
2018-06-24 19:53 METAR KACK 242353Z 22008KT 1/4SM R24/1800FT FG VV002 17/17 A2984 RMK AO2 SLP106
                 T01720167 10183 20167 53004 =
2018-06-24 19:26 METAR KACK 242326Z 21006KT 1/4SM R24/1800FT FG VV002 17/17 A2984 RMK AO2
                 T01670167 =
2018-06-24 18:53 METAR KACK 242253Z 19006KT M1/4SM R24/1200V1400FT FG VV002 17/17 A2984 RMK AO2
                 SLP103 T01670167 =
2018-06-24 17:53 METAR KACK 242153Z 20007KT M1/4SM R24/1200FT FG VV002 17/17 A2983 RMK AO2 SLP102
                 T01670167 =
2018-06-24 17:31 METAR KACK 242131Z 20006KT 1/4SM R24/1200FT FG VV002 17/17 A2983 RMK AO2
                 T01670167 =
2018-06-24 17:03 METAR KACK 242103Z 20008KT 3/4SM R24/1400V2400FT BR OVC002 17/17 A2983 RMK AO2
                 T01720167 =
2018-06-24 16:53 METAR KACK 242053Z 20007KT 1 1/2SM R24/2600VP6000FT BR BKN003 BKN007 17/17 A2983
                 RMK AO2 VIS 3/4V5 SLP102 T01720167 58008 =
2018-06-24 16:24 METAR KACK 242024Z 20009KT 10SM BKN003 BKN007 17/16 A2984 RMK AO2 T01720161 =
2018-06-24 15:53 METAR KACK 241953Z 19008KT 10SM BKN005 18/17 A2985 RMK AO2 CIG 003V007 SLP106
                 T01780167 =
2018-06-24 15:50 METAR KACK 241950Z 20009KT 10SM SCT003 BKN007 18/16 A2985 RMK AO2 =
2018-06-24 14:53 METAR KACK 241853Z 20009KT 2SM BR BKN003 OVC030 18/17 A2985 RMK AO2 SLP109
                 T01780167 =
2018-06-24 14:22 METAR KACK 241822Z 21008KT 3/4SM R24/1800V5000FT BR BKN002 OVC012 18/17 A2985
                 RMK AO2 T01780167 =
2018-06-24 13:53 METAR KACK 241753Z 23011KT 4SM R24/4000VP6000FT BR OVC002 18/17 A2986 RMK AO2
                 SLP110 VIS S-W 2 T01780167 10200 20167 58004 =
2018-06-24 13:00 METAR KACK 241700Z 22010KT 2SM R24/3000VP6000FT BR OVC002 17/17 A2986 RMK AO2
                 T01720167 =
2018-06-24 12:53 METAR KACK 241653Z 22009KT 5SM R24/3500VP6000FT BR SCT002 BKN008 BKN020 18/17
                 A2986 RMK AO2 SLP112 T01780172 =
2018-06-24 11:53 METAR KACK 241553Z 23011KT 10SM BKN008 BKN020 19/17 A2987 RMK AO2 CIG 006V010
                 SLP114 T01890172 =
2018-06-24 10:53 METAR KACK 241453Z 22010KT 10SM OVC006 18/17 A2987 RMK AO2 SLP115 T01830167
                 53011 =
2018-06-24 09:53 METAR KACK 241353Z 24009KT 10SM OVC007 18/17 A2985 RMK AO2 SLP109 T01830167 =
2018-06-24 09:00 METAR KACK 241300Z 26007KT 10SM BKN005 OVC013 19/17 A2985 RMK AO2 T01890172 =
2018-06-24 08:53 METAR KACK 241253Z 23005KT 10SM BKN004 OVC013 18/17 A2985 RMK AO2 SLP108
                 T01830172 =
2018-06-24 07:53 METAR KACK 241153Z 20004KT 10SM BKN004 BKN009 17/17 A2984 RMK AO2 SLP104 60005
                 70103 T01720167 10178 20156 51010 =
2018-06-24 07:22 METAR KACK 241122Z 00000KT 6SM BR BKN003 OVC009 17/17 A2984 RMK AO2 CIG 002V007
                 T01720167 =
2018-06-24 06:53 METAR KACK 241053Z 00000KT 1 1/4SM BR OVC003 16/16 A2984 RMK AO2 SLP103
                 T01610156 =
2018-06-24 06:23 METAR KACK 241023Z 34003KT 2 1/2SM BR OVC003 16/16 A2983 RMK AO2 T01610156 =
2018-06-24 05:53 METAR KACK 240953Z 34004KT 6SM BR OVC004 16/16 A2982 RMK AO2 SLP098 T01610156 =
2018-06-24 04:53 METAR KACK 240853Z AUTO 34005KT 4SM BR OVC003 16/16 A2981 RMK AO2 SLP094 60005
                 T01560156 53004 =
2018-06-24 03:53 METAR KACK 240753Z AUTO 33007KT 10SM OVC004 16/16 A2979 RMK AO2 RAE09 SLP089
                 P0000 T01610156 =
2018-06-24 03:30 METAR KACK 240730Z AUTO 34007KT 3SM BR OVC002 16/16 A2979 RMK AO2 RAE09 P0000
                 T01610161 =
2018-06-24 03:02 METAR KACK 240702Z AUTO 34007KT 1 3/4SM R24/5000VP6000FT -RA BR OVC003 17/17
                 A2979 RMK AO2 LTG DSNT E P0000 T01670167 =
2018-06-24 02:53 METAR KACK 240653Z AUTO 33005KT 3/4SM R24/4000V5000FT -RA BR VV003 17/16 A2979
                 RMK AO2 RAB16 SLP088 P0005 T01670161 =
2018-06-24 02:43 METAR KACK 240643Z AUTO 00000KT 1/2SM R24/2600V4000FT -RA FG VV002 17/16 A2979
                 RMK AO2 RAB16 P0004 T01670161 =
2018-06-24 02:36 METAR KACK 240636Z AUTO 00000KT 1/4SM R24/2200V3000FT RA FG VV002 18/16 A2980
                 RMK AO2 RAB16 P0003 T01780161 =
2018-06-24 02:13 METAR KACK 240613Z AUTO 31005KT 1/2SM R24/2600V3000FT FG VV002 16/16 A2979 RMK
                 AO2 P0001 T01610161 =
2018-06-24 01:53 METAR KACK 240553Z AUTO 29004KT 1/4SM R24/2000V2400FT FG VV002 16/16 A2980 RMK
                 AO2 RAB31E45 SLP090 P0000 60000 T01610161 10172 20156 58006 =
2018-06-24 00:53 METAR KACK 240453Z AUTO 22004KT 1/4SM R24/2000V2200FT FG VV002 16/16 A2981 RMK
                 AO2 SLP095 T01610161 401780139 =
2018-06-24 00:50 METAR KACK 240450Z AUTO 21004KT 1/4SM R24/2000V2200FT FG VV002 16/16 A2982 RMK
                 AO2 =
2018-06-24 00:22 METAR KACK 240422Z AUTO 00000KT 1/4SM R24/2200V2600FT FG VV002 16/16 A2981 RMK
                 AO2 T01610161 =

Support USWX by starting your Amazon purchase here.